sensor_id;sensor_type;location;lat;lon;timestamp;temperature;humidity
25280;DHT22;13225;47.804;12.116;2023-07-28T00:02:20;16.70;99.90
25280;DHT22;13225;47.804;12.116;2023-07-28T00:04:46;16.70;99.90
25280;DHT22;13225;47.804;12.116;2023-07-28T00:07:11;16.70;99.90
25280;DHT22;13225;47.804;12.116;2023-07-28T00:09:37;16.70;99.90
25280;DHT22;13225;47.804;12.116;2023-07-28T00:12:03;16.60;99.90
25280;DHT22;13225;47.804;12.116;2023-07-28T00:14:28;16.50;99.90
25280;DHT22;13225;47.804;12.116;2023-07-28T00:16:55;16.60;99.90
25280;DHT22;13225;47.804;12.116;2023-07-28T00:19:21;16.50;99.90
25280;DHT22;13225;47.804;12.116;2023-07-28T00:21:50;16.50;99.90
25280;DHT22;13225;47.804;12.116;2023-07-28T00:24:17;16.50;99.90
25280;DHT22;13225;47.804;12.116;2023-07-28T00:26:43;16.40;99.90
25280;DHT22;13225;47.804;12.116;2023-07-28T00:29:09;16.40;99.90
25280;DHT22;13225;47.804;12.116;2023-07-28T00:31:35;16.30;99.90
25280;DHT22;13225;47.804;12.116;2023-07-28T00:34:02;16.30;99.90
25280;DHT22;13225;47.804;12.116;2023-07-28T00:36:28;16.30;99.90
25280;DHT22;13225;47.804;12.116;2023-07-28T00:38:53;16.20;99.90
25280;DHT22;13225;47.804;12.116;2023-07-28T00:41:19;16.20;99.90
25280;DHT22;13225;47.804;12.116;2023-07-28T00:43:44;16.20;99.90
25280;DHT22;13225;47.804;12.116;2023-07-28T00:46:10;16.10;99.90
25280;DHT22;13225;47.804;12.116;2023-07-28T00:48:37;16.10;99.90
25280;DHT22;13225;47.804;12.116;2023-07-28T00:51:03;16.00;99.90
25280;DHT22;13225;47.804;12.116;2023-07-28T00:53:29;16.00;99.90
25280;DHT22;13225;47.804;12.116;2023-07-28T00:55:55;16.00;99.90
25280;DHT22;13225;47.804;12.116;2023-07-28T00:58:21;15.90;99.90
25280;DHT22;13225;47.804;12.116;2023-07-28T01:00:47;15.90;99.90
25280;DHT22;13225;47.804;12.116;2023-07-28T01:03:14;15.90;99.90
25280;DHT22;13225;47.804;12.116;2023-07-28T01:08:53;15.90;99.90
25280;DHT22;13225;47.804;12.116;2023-07-28T01:11:21;15.90;99.90
25280;DHT22;13225;47.804;12.116;2023-07-28T01:13:47;15.80;99.90
25280;DHT22;13225;47.804;12.116;2023-07-28T01:16:13;15.80;99.90
25280;DHT22;13225;47.804;12.116;2023-07-28T01:18:38;15.80;99.90
25280;DHT22;13225;47.804;12.116;2023-07-28T01:21:08;15.70;99.90
25280;DHT22;13225;47.804;12.116;2023-07-28T01:23:38;15.80;99.90
25280;DHT22;13225;47.804;12.116;2023-07-28T01:26:11;15.70;99.90
25280;DHT22;13225;47.804;12.116;2023-07-28T01:28:39;15.70;99.90
25280;DHT22;13225;47.804;12.116;2023-07-28T01:31:07;15.70;99.90
25280;DHT22;13225;47.804;12.116;2023-07-28T01:33:33;15.60;99.90
25280;DHT22;13225;47.804;12.116;2023-07-28T01:35:59;15.60;99.90
25280;DHT22;13225;47.804;12.116;2023-07-28T01:38:29;15.60;99.90
25280;DHT22;13225;47.804;12.116;2023-07-28T01:40:54;15.50;99.90
25280;DHT22;13225;47.804;12.116;2023-07-28T01:43:20;15.50;99.90
25280;DHT22;13225;47.804;12.116;2023-07-28T01:45:46;15.50;99.90
25280;DHT22;13225;47.804;12.116;2023-07-28T01:48:11;15.50;99.90
25280;DHT22;13225;47.804;12.116;2023-07-28T01:50:37;15.40;99.90
25280;DHT22;13225;47.804;12.116;2023-07-28T01:53:05;15.40;99.90
25280;DHT22;13225;47.804;12.116;2023-07-28T01:55:30;15.40;99.90
25280;DHT22;13225;47.804;12.116;2023-07-28T01:57:58;15.30;99.90
25280;DHT22;13225;47.804;12.116;2023-07-28T02:00:24;15.30;99.90
25280;DHT22;13225;47.804;12.116;2023-07-28T02:02:49;15.20;99.90
25280;DHT22;13225;47.804;12.116;2023-07-28T02:05:15;15.20;99.90
25280;DHT22;13225;47.804;12.116;2023-07-28T02:07:42;15.20;99.90
25280;DHT22;13225;47.804;12.116;2023-07-28T02:10:07;15.20;99.90
25280;DHT22;13225;47.804;12.116;2023-07-28T02:12:33;15.20;99.90
25280;DHT22;13225;47.804;12.116;2023-07-28T02:14:59;15.20;99.90
25280;DHT22;13225;47.804;12.116;2023-07-28T02:17:25;15.20;99.90
25280;DHT22;13225;47.804;12.116;2023-07-28T02:19:51;15.20;99.90
25280;DHT22;13225;47.804;12.116;2023-07-28T02:22:16;15.20;99.90
25280;DHT22;13225;47.804;12.116;2023-07-28T02:24:42;15.20;99.90
25280;DHT22;13225;47.804;12.116;2023-07-28T02:27:07;15.20;99.90
25280;DHT22;13225;47.804;12.116;2023-07-28T02:29:33;15.20;99.90
25280;DHT22;13225;47.804;12.116;2023-07-28T02:31:59;15.20;99.90
25280;DHT22;13225;47.804;12.116;2023-07-28T02:34:24;15.10;99.90
25280;DHT22;13225;47.804;12.116;2023-07-28T02:36:50;15.10;99.90
25280;DHT22;13225;47.804;12.116;2023-07-28T02:39:15;15.10;99.90
25280;DHT22;13225;47.804;12.116;2023-07-28T02:41:42;15.10;99.90
25280;DHT22;13225;47.804;12.116;2023-07-28T02:44:07;15.10;99.90
25280;DHT22;13225;47.804;12.116;2023-07-28T02:46:33;15.10;99.90
25280;DHT22;13225;47.804;12.116;2023-07-28T02:48:58;15.10;99.90
25280;DHT22;13225;47.804;12.116;2023-07-28T02:51:24;15.10;99.90
25280;DHT22;13225;47.804;12.116;2023-07-28T02:53:50;15.10;99.90
25280;DHT22;13225;47.804;12.116;2023-07-28T02:56:15;15.10;99.90
25280;DHT22;13225;47.804;12.116;2023-07-28T02:58:41;15.10;99.90
25280;DHT22;13225;47.804;12.116;2023-07-28T03:01:06;15.00;99.90
25280;DHT22;13225;47.804;12.116;2023-07-28T03:03:32;15.00;99.90
25280;DHT22;13225;47.804;12.116;2023-07-28T03:05:57;15.00;99.90
25280;DHT22;13225;47.804;12.116;2023-07-28T03:08:23;15.00;99.90
25280;DHT22;13225;47.804;12.116;2023-07-28T03:10:48;14.90;99.90
25280;DHT22;13225;47.804;12.116;2023-07-28T03:13:14;14.90;99.90
25280;DHT22;13225;47.804;12.116;2023-07-28T03:15:39;14.80;99.90
25280;DHT22;13225;47.804;12.116;2023-07-28T03:18:05;14.80;99.90
25280;DHT22;13225;47.804;12.116;2023-07-28T03:20:30;14.90;99.90
25280;DHT22;13225;47.804;12.116;2023-07-28T03:22:56;14.90;99.90
25280;DHT22;13225;47.804;12.116;2023-07-28T03:25:22;14.90;99.90
25280;DHT22;13225;47.804;12.116;2023-07-28T03:27:47;14.90;99.90
25280;DHT22;13225;47.804;12.116;2023-07-28T03:30:13;15.00;99.90
25280;DHT22;13225;47.804;12.116;2023-07-28T03:32:39;14.90;99.90
25280;DHT22;13225;47.804;12.116;2023-07-28T03:35:05;15.00;99.90
25280;DHT22;13225;47.804;12.116;2023-07-28T03:37:32;14.90;99.90
25280;DHT22;13225;47.804;12.116;2023-07-28T03:39:58;14.90;99.90
25280;DHT22;13225;47.804;12.116;2023-07-28T03:42:24;14.90;99.90
25280;DHT22;13225;47.804;12.116;2023-07-28T03:44:49;14.90;99.90
25280;DHT22;13225;47.804;12.116;2023-07-28T03:47:15;15.00;99.90
25280;DHT22;13225;47.804;12.116;2023-07-28T03:49:41;14.90;99.90
25280;DHT22;13225;47.804;12.116;2023-07-28T03:52:06;15.00;99.90
25280;DHT22;13225;47.804;12.116;2023-07-28T03:54:32;15.00;99.90
25280;DHT22;13225;47.804;12.116;2023-07-28T03:56:57;15.00;99.90
25280;DHT22;13225;47.804;12.116;2023-07-28T03:59:23;15.10;99.90
25280;DHT22;13225;47.804;12.116;2023-07-28T04:01:48;15.00;99.90
25280;DHT22;13225;47.804;12.116;2023-07-28T04:04:14;15.00;99.90
25280;DHT22;13225;47.804;12.116;2023-07-28T04:06:42;15.00;99.90
25280;DHT22;13225;47.804;12.116;2023-07-28T04:09:08;15.00;99.90
25280;DHT22;13225;47.804;12.116;2023-07-28T04:11:34;15.10;99.90
25280;DHT22;13225;47.804;12.116;2023-07-28T04:13:59;15.10;99.90
25280;DHT22;13225;47.804;12.116;2023-07-28T04:16:25;15.30;99.90
25280;DHT22;13225;47.804;12.116;2023-07-28T04:18:51;15.60;99.90
25280;DHT22;13225;47.804;12.116;2023-07-28T04:21:16;16.00;99.90
25280;DHT22;13225;47.804;12.116;2023-07-28T04:23:42;16.20;99.90
25280;DHT22;13225;47.804;12.116;2023-07-28T04:26:08;16.30;99.90
25280;DHT22;13225;47.804;12.116;2023-07-28T04:28:34;16.20;99.90
25280;DHT22;13225;47.804;12.116;2023-07-28T04:30:59;16.20;99.90
25280;DHT22;13225;47.804;12.116;2023-07-28T04:33:25;16.10;99.90
25280;DHT22;13225;47.804;12.116;2023-07-28T04:35:50;15.90;99.90
25280;DHT22;13225;47.804;12.116;2023-07-28T04:38:16;15.80;99.90
25280;DHT22;13225;47.804;12.116;2023-07-28T04:40:43;16.00;99.90
25280;DHT22;13225;47.804;12.116;2023-07-28T04:43:09;16.40;99.90
25280;DHT22;13225;47.804;12.116;2023-07-28T04:45:35;16.70;99.90
25280;DHT22;13225;47.804;12.116;2023-07-28T04:48:00;16.80;99.90
25280;DHT22;13225;47.804;12.116;2023-07-28T04:50:26;16.80;99.90
25280;DHT22;13225;47.804;12.116;2023-07-28T04:52:52;17.10;99.90
25280;DHT22;13225;47.804;12.116;2023-07-28T04:55:17;17.70;99.90
25280;DHT22;13225;47.804;12.116;2023-07-28T04:57:43;18.00;99.90
25280;DHT22;13225;47.804;12.116;2023-07-28T05:00:09;18.30;99.90
25280;DHT22;13225;47.804;12.116;2023-07-28T05:02:34;18.20;99.90
25280;DHT22;13225;47.804;12.116;2023-07-28T05:05:00;17.80;99.90
25280;DHT22;13225;47.804;12.116;2023-07-28T05:07:25;17.60;99.90
25280;DHT22;13225;47.804;12.116;2023-07-28T05:09:51;17.30;99.90
25280;DHT22;13225;47.804;12.116;2023-07-28T05:12:17;17.40;99.90
25280;DHT22;13225;47.804;12.116;2023-07-28T05:14:43;17.30;99.90
25280;DHT22;13225;47.804;12.116;2023-07-28T05:17:08;17.40;99.90
25280;DHT22;13225;47.804;12.116;2023-07-28T05:19:34;17.10;99.90
25280;DHT22;13225;47.804;12.116;2023-07-28T05:22:00;17.10;99.90
25280;DHT22;13225;47.804;12.116;2023-07-28T05:24:25;17.00;99.90
25280;DHT22;13225;47.804;12.116;2023-07-28T05:26:51;17.20;99.90
25280;DHT22;13225;47.804;12.116;2023-07-28T05:29:17;17.30;99.90
25280;DHT22;13225;47.804;12.116;2023-07-28T05:31:42;17.20;99.90
25280;DHT22;13225;47.804;12.116;2023-07-28T05:34:08;17.10;99.90
25280;DHT22;13225;47.804;12.116;2023-07-28T05:36:33;17.10;99.90
25280;DHT22;13225;47.804;12.116;2023-07-28T05:38:59;17.10;99.90
25280;DHT22;13225;47.804;12.116;2023-07-28T05:41:24;17.10;99.90
25280;DHT22;13225;47.804;12.116;2023-07-28T05:43:50;17.10;99.90
25280;DHT22;13225;47.804;12.116;2023-07-28T05:46:16;16.80;99.90
25280;DHT22;13225;47.804;12.116;2023-07-28T05:48:41;16.80;99.90
25280;DHT22;13225;47.804;12.116;2023-07-28T05:51:07;16.70;99.90
25280;DHT22;13225;47.804;12.116;2023-07-28T05:53:33;16.70;99.90
25280;DHT22;13225;47.804;12.116;2023-07-28T05:55:58;16.70;99.90
25280;DHT22;13225;47.804;12.116;2023-07-28T05:58:24;16.60;99.90
25280;DHT22;13225;47.804;12.116;2023-07-28T06:00:49;16.60;99.90
25280;DHT22;13225;47.804;12.116;2023-07-28T06:03:15;16.60;99.90
25280;DHT22;13225;47.804;12.116;2023-07-28T06:05:42;16.60;99.90
25280;DHT22;13225;47.804;12.116;2023-07-28T06:08:08;16.60;99.90
25280;DHT22;13225;47.804;12.116;2023-07-28T06:10:34;16.60;99.90
25280;DHT22;13225;47.804;12.116;2023-07-28T06:12:59;16.60;99.90
25280;DHT22;13225;47.804;12.116;2023-07-28T06:15:25;16.60;99.90
25280;DHT22;13225;47.804;12.116;2023-07-28T06:17:51;16.70;99.90
25280;DHT22;13225;47.804;12.116;2023-07-28T06:20:16;16.60;99.90
25280;DHT22;13225;47.804;12.116;2023-07-28T06:22:42;16.70;99.90
25280;DHT22;13225;47.804;12.116;2023-07-28T06:25:08;16.80;99.90
25280;DHT22;13225;47.804;12.116;2023-07-28T06:27:33;16.90;99.90
25280;DHT22;13225;47.804;12.116;2023-07-28T06:29:59;16.80;99.90
25280;DHT22;13225;47.804;12.116;2023-07-28T06:32:26;16.80;99.90
25280;DHT22;13225;47.804;12.116;2023-07-28T06:34:53;16.80;99.90
25280;DHT22;13225;47.804;12.116;2023-07-28T06:37:19;16.90;99.90
25280;DHT22;13225;47.804;12.116;2023-07-28T06:39:45;17.00;99.90
25280;DHT22;13225;47.804;12.116;2023-07-28T06:42:10;17.00;99.90
25280;DHT22;13225;47.804;12.116;2023-07-28T06:44:37;17.00;99.90
25280;DHT22;13225;47.804;12.116;2023-07-28T06:47:03;17.00;99.90
25280;DHT22;13225;47.804;12.116;2023-07-28T06:49:29;17.10;99.90
25280;DHT22;13225;47.804;12.116;2023-07-28T06:51:54;17.20;99.90
25280;DHT22;13225;47.804;12.116;2023-07-28T06:54:20;17.30;99.90
25280;DHT22;13225;47.804;12.116;2023-07-28T06:56:45;17.30;99.90
25280;DHT22;13225;47.804;12.116;2023-07-28T06:59:11;17.30;99.90
25280;DHT22;13225;47.804;12.116;2023-07-28T07:01:37;17.40;99.90
25280;DHT22;13225;47.804;12.116;2023-07-28T07:04:03;17.40;99.90
25280;DHT22;13225;47.804;12.116;2023-07-28T07:06:30;17.30;99.90
25280;DHT22;13225;47.804;12.116;2023-07-28T07:08:55;17.40;99.90
25280;DHT22;13225;47.804;12.116;2023-07-28T07:11:21;17.50;99.90
25280;DHT22;13225;47.804;12.116;2023-07-28T07:13:47;17.60;99.90
25280;DHT22;13225;47.804;12.116;2023-07-28T07:16:16;17.50;99.90
25280;DHT22;13225;47.804;12.116;2023-07-28T07:18:43;17.60;99.90
25280;DHT22;13225;47.804;12.116;2023-07-28T07:21:09;17.60;99.90
25280;DHT22;13225;47.804;12.116;2023-07-28T07:23:35;17.70;99.90
25280;DHT22;13225;47.804;12.116;2023-07-28T07:26:01;17.70;99.90
25280;DHT22;13225;47.804;12.116;2023-07-28T07:28:27;17.60;99.90
25280;DHT22;13225;47.804;12.116;2023-07-28T07:30:56;17.60;99.90
25280;DHT22;13225;47.804;12.116;2023-07-28T07:33:23;17.60;99.90
25280;DHT22;13225;47.804;12.116;2023-07-28T07:35:50;17.80;99.90
25280;DHT22;13225;47.804;12.116;2023-07-28T07:38:15;17.80;99.90
25280;DHT22;13225;47.804;12.116;2023-07-28T07:40:41;17.90;99.90
25280;DHT22;13225;47.804;12.116;2023-07-28T07:43:06;18.10;99.90
25280;DHT22;13225;47.804;12.116;2023-07-28T07:45:32;18.40;99.90
25280;DHT22;13225;47.804;12.116;2023-07-28T07:47:58;18.60;99.90
25280;DHT22;13225;47.804;12.116;2023-07-28T07:50:24;18.80;99.90
25280;DHT22;13225;47.804;12.116;2023-07-28T07:52:50;18.90;99.90
25280;DHT22;13225;47.804;12.116;2023-07-28T07:55:16;19.10;99.90
25280;DHT22;13225;47.804;12.116;2023-07-28T07:57:41;19.30;99.90
25280;DHT22;13225;47.804;12.116;2023-07-28T08:00:08;19.50;99.90
25280;DHT22;13225;47.804;12.116;2023-07-28T08:02:34;19.70;99.90
25280;DHT22;13225;47.804;12.116;2023-07-28T08:05:00;19.80;99.90
25280;DHT22;13225;47.804;12.116;2023-07-28T08:07:26;19.90;99.90
25280;DHT22;13225;47.804;12.116;2023-07-28T08:09:51;19.90;99.90
25280;DHT22;13225;47.804;12.116;2023-07-28T08:12:17;19.90;99.90
25280;DHT22;13225;47.804;12.116;2023-07-28T08:14:43;20.00;99.90
25280;DHT22;13225;47.804;12.116;2023-07-28T08:17:10;20.10;99.90
25280;DHT22;13225;47.804;12.116;2023-07-28T08:19:35;20.00;99.90
25280;DHT22;13225;47.804;12.116;2023-07-28T08:22:02;20.10;99.90
25280;DHT22;13225;47.804;12.116;2023-07-28T08:24:31;20.20;99.90
25280;DHT22;13225;47.804;12.116;2023-07-28T08:26:57;20.40;99.90
25280;DHT22;13225;47.804;12.116;2023-07-28T08:29:22;20.40;99.90
25280;DHT22;13225;47.804;12.116;2023-07-28T08:31:48;20.40;99.90
25280;DHT22;13225;47.804;12.116;2023-07-28T08:34:13;20.30;99.90
25280;DHT22;13225;47.804;12.116;2023-07-28T08:36:39;20.40;99.90
25280;DHT22;13225;47.804;12.116;2023-07-28T08:39:05;20.60;99.90
25280;DHT22;13225;47.804;12.116;2023-07-28T08:41:31;20.70;99.90
25280;DHT22;13225;47.804;12.116;2023-07-28T08:43:56;20.80;99.90
25280;DHT22;13225;47.804;12.116;2023-07-28T08:46:22;21.00;99.90
25280;DHT22;13225;47.804;12.116;2023-07-28T08:48:48;21.20;99.90
25280;DHT22;13225;47.804;12.116;2023-07-28T08:51:14;21.10;99.90
25280;DHT22;13225;47.804;12.116;2023-07-28T08:53:40;21.30;99.90
25280;DHT22;13225;47.804;12.116;2023-07-28T08:56:06;21.50;99.90
25280;DHT22;13225;47.804;12.116;2023-07-28T08:58:32;22.00;99.90
25280;DHT22;13225;47.804;12.116;2023-07-28T09:00:57;22.20;99.90
25280;DHT22;13225;47.804;12.116;2023-07-28T09:03:27;22.10;99.90
25280;DHT22;13225;47.804;12.116;2023-07-28T09:06:02;21.90;99.90
25280;DHT22;13225;47.804;12.116;2023-07-28T09:08:30;22.20;99.90
25280;DHT22;13225;47.804;12.116;2023-07-28T09:10:55;22.50;99.90
25280;DHT22;13225;47.804;12.116;2023-07-28T09:13:21;22.50;99.90
25280;DHT22;13225;47.804;12.116;2023-07-28T09:15:47;22.80;99.90
25280;DHT22;13225;47.804;12.116;2023-07-28T09:18:15;22.90;99.90
25280;DHT22;13225;47.804;12.116;2023-07-28T09:20:42;23.00;99.90
25280;DHT22;13225;47.804;12.116;2023-07-28T09:23:09;23.40;99.90
25280;DHT22;13225;47.804;12.116;2023-07-28T09:25:36;23.20;99.90
25280;DHT22;13225;47.804;12.116;2023-07-28T09:28:03;22.80;99.90
25280;DHT22;13225;47.804;12.116;2023-07-28T09:30:47;22.80;99.90
25280;DHT22;13225;47.804;12.116;2023-07-28T09:33:29;23.00;99.90
25280;DHT22;13225;47.804;12.116;2023-07-28T09:35:54;23.50;99.90
25280;DHT22;13225;47.804;12.116;2023-07-28T09:38:21;23.70;99.90
25280;DHT22;13225;47.804;12.116;2023-07-28T09:40:48;23.50;99.90
25280;DHT22;13225;47.804;12.116;2023-07-28T09:43:14;23.30;99.90
25280;DHT22;13225;47.804;12.116;2023-07-28T09:45:40;23.20;99.90
25280;DHT22;13225;47.804;12.116;2023-07-28T09:48:09;23.30;99.90
25280;DHT22;13225;47.804;12.116;2023-07-28T09:50:38;23.60;99.90
25280;DHT22;13225;47.804;12.116;2023-07-28T09:53:04;23.80;99.90
25280;DHT22;13225;47.804;12.116;2023-07-28T09:55:33;24.00;99.90
25280;DHT22;13225;47.804;12.116;2023-07-28T09:58:04;24.10;99.90
25280;DHT22;13225;47.804;12.116;2023-07-28T10:00:31;24.00;99.90
25280;DHT22;13225;47.804;12.116;2023-07-28T10:02:58;24.30;99.90
25280;DHT22;13225;47.804;12.116;2023-07-28T10:05:25;24.50;99.90
25280;DHT22;13225;47.804;12.116;2023-07-28T10:07:51;24.30;99.90
25280;DHT22;13225;47.804;12.116;2023-07-28T10:10:17;24.70;99.90
25280;DHT22;13225;47.804;12.116;2023-07-28T10:12:49;25.10;99.90
25280;DHT22;13225;47.804;12.116;2023-07-28T10:15:19;25.20;99.90
25280;DHT22;13225;47.804;12.116;2023-07-28T10:17:49;25.10;99.90
25280;DHT22;13225;47.804;12.116;2023-07-28T10:20:36;25.00;99.90
25280;DHT22;13225;47.804;12.116;2023-07-28T10:23:15;24.80;99.90
25280;DHT22;13225;47.804;12.116;2023-07-28T10:25:42;24.50;99.90
25280;DHT22;13225;47.804;12.116;2023-07-28T10:30:52;24.70;99.90
25280;DHT22;13225;47.804;12.116;2023-07-28T10:35:57;24.50;99.90
25280;DHT22;13225;47.804;12.116;2023-07-28T10:41:09;24.40;99.90
25280;DHT22;13225;47.804;12.116;2023-07-28T10:43:36;24.30;99.90
25280;DHT22;13225;47.804;12.116;2023-07-28T10:46:01;24.30;99.90
25280;DHT22;13225;47.804;12.116;2023-07-28T10:48:27;24.20;99.90
25280;DHT22;13225;47.804;12.116;2023-07-28T10:50:53;24.10;99.90
25280;DHT22;13225;47.804;12.116;2023-07-28T10:53:19;24.20;99.90
25280;DHT22;13225;47.804;12.116;2023-07-28T10:55:45;24.10;99.90
25280;DHT22;13225;47.804;12.116;2023-07-28T10:58:10;24.10;99.90
25280;DHT22;13225;47.804;12.116;2023-07-28T11:00:36;24.20;99.90
25280;DHT22;13225;47.804;12.116;2023-07-28T11:03:02;24.30;99.90
25280;DHT22;13225;47.804;12.116;2023-07-28T11:05:29;24.10;99.90
25280;DHT22;13225;47.804;12.116;2023-07-28T11:07:57;24.00;99.90
25280;DHT22;13225;47.804;12.116;2023-07-28T11:10:22;23.90;99.90
25280;DHT22;13225;47.804;12.116;2023-07-28T11:12:50;23.90;99.90
25280;DHT22;13225;47.804;12.116;2023-07-28T11:15:17;23.90;99.90
25280;DHT22;13225;47.804;12.116;2023-07-28T11:17:48;24.00;99.90
25280;DHT22;13225;47.804;12.116;2023-07-28T11:20:21;24.00;99.90
25280;DHT22;13225;47.804;12.116;2023-07-28T11:25:18;23.90;99.90
25280;DHT22;13225;47.804;12.116;2023-07-28T11:27:45;23.90;99.90
25280;DHT22;13225;47.804;12.116;2023-07-28T11:30:17;24.00;99.90
25280;DHT22;13225;47.804;12.116;2023-07-28T11:32:44;24.00;99.90
25280;DHT22;13225;47.804;12.116;2023-07-28T11:35:12;23.80;99.90
25280;DHT22;13225;47.804;12.116;2023-07-28T11:37:39;23.80;99.90
25280;DHT22;13225;47.804;12.116;2023-07-28T11:40:06;23.90;99.90
25280;DHT22;13225;47.804;12.116;2023-07-28T11:42:37;23.80;99.90
25280;DHT22;13225;47.804;12.116;2023-07-28T11:45:07;23.80;99.90
25280;DHT22;13225;47.804;12.116;2023-07-28T11:47:33;23.70;99.90
25280;DHT22;13225;47.804;12.116;2023-07-28T11:49:59;23.70;99.90
25280;DHT22;13225;47.804;12.116;2023-07-28T11:54:56;23.60;99.90
25280;DHT22;13225;47.804;12.116;2023-07-28T11:57:21;23.60;99.90
25280;DHT22;13225;47.804;12.116;2023-07-28T11:59:47;23.50;99.90
25280;DHT22;13225;47.804;12.116;2023-07-28T12:02:13;23.60;99.90
25280;DHT22;13225;47.804;12.116;2023-07-28T12:04:39;23.60;99.90
25280;DHT22;13225;47.804;12.116;2023-07-28T12:07:10;23.70;99.90
25280;DHT22;13225;47.804;12.116;2023-07-28T12:12:12;24.10;99.90
25280;DHT22;13225;47.804;12.116;2023-07-28T12:14:38;24.30;99.90
25280;DHT22;13225;47.804;12.116;2023-07-28T12:17:15;24.40;99.90
25280;DHT22;13225;47.804;12.116;2023-07-28T12:20:03;24.50;99.90
25280;DHT22;13225;47.804;12.116;2023-07-28T12:22:42;24.70;99.90
25280;DHT22;13225;47.804;12.116;2023-07-28T12:25:09;24.70;99.90
25280;DHT22;13225;47.804;12.116;2023-07-28T12:27:35;24.70;99.90
25280;DHT22;13225;47.804;12.116;2023-07-28T12:30:02;24.70;99.90
25280;DHT22;13225;47.804;12.116;2023-07-28T12:32:28;24.70;99.90
25280;DHT22;13225;47.804;12.116;2023-07-28T12:34:54;25.00;99.90
25280;DHT22;13225;47.804;12.116;2023-07-28T12:37:20;25.20;99.90
25280;DHT22;13225;47.804;12.116;2023-07-28T12:39:46;25.40;99.90
25280;DHT22;13225;47.804;12.116;2023-07-28T12:42:12;25.80;99.90
25280;DHT22;13225;47.804;12.116;2023-07-28T12:44:38;25.70;99.90
25280;DHT22;13225;47.804;12.116;2023-07-28T12:47:05;25.70;99.90
25280;DHT22;13225;47.804;12.116;2023-07-28T12:49:31;25.50;99.90
25280;DHT22;13225;47.804;12.116;2023-07-28T12:51:58;25.30;99.90
25280;DHT22;13225;47.804;12.116;2023-07-28T12:54:24;25.00;99.90
25280;DHT22;13225;47.804;12.116;2023-07-28T12:56:50;25.10;99.90
25280;DHT22;13225;47.804;12.116;2023-07-28T12:59:16;25.20;99.90
25280;DHT22;13225;47.804;12.116;2023-07-28T13:01:42;25.00;99.90
25280;DHT22;13225;47.804;12.116;2023-07-28T13:04:07;25.00;99.90
25280;DHT22;13225;47.804;12.116;2023-07-28T13:06:33;25.30;99.90
25280;DHT22;13225;47.804;12.116;2023-07-28T13:08:59;25.20;99.90
25280;DHT22;13225;47.804;12.116;2023-07-28T13:11:24;25.40;99.90
25280;DHT22;13225;47.804;12.116;2023-07-28T13:13:50;25.60;99.90
25280;DHT22;13225;47.804;12.116;2023-07-28T13:16:16;25.40;99.90
25280;DHT22;13225;47.804;12.116;2023-07-28T13:18:44;25.40;99.90
25280;DHT22;13225;47.804;12.116;2023-07-28T13:21:10;25.50;99.90
25280;DHT22;13225;47.804;12.116;2023-07-28T13:23:37;25.80;99.90
25280;DHT22;13225;47.804;12.116;2023-07-28T13:26:03;26.20;99.90
25280;DHT22;13225;47.804;12.116;2023-07-28T13:28:32;27.00;99.90
25280;DHT22;13225;47.804;12.116;2023-07-28T13:30:58;27.30;99.90
25280;DHT22;13225;47.804;12.116;2023-07-28T13:33:23;27.70;99.90
25280;DHT22;13225;47.804;12.116;2023-07-28T13:35:49;27.10;99.90
25280;DHT22;13225;47.804;12.116;2023-07-28T13:38:15;26.90;99.90
25280;DHT22;13225;47.804;12.116;2023-07-28T13:40:40;27.10;99.90
25280;DHT22;13225;47.804;12.116;2023-07-28T13:43:06;27.00;99.90
25280;DHT22;13225;47.804;12.116;2023-07-28T13:45:32;26.90;99.90
25280;DHT22;13225;47.804;12.116;2023-07-28T13:47:58;26.60;99.90
25280;DHT22;13225;47.804;12.116;2023-07-28T13:50:23;26.20;99.90
25280;DHT22;13225;47.804;12.116;2023-07-28T13:52:50;25.70;99.90
25280;DHT22;13225;47.804;12.116;2023-07-28T13:55:15;25.40;99.90
25280;DHT22;13225;47.804;12.116;2023-07-28T13:57:41;25.30;99.90
25280;DHT22;13225;47.804;12.116;2023-07-28T14:00:07;25.10;99.90
25280;DHT22;13225;47.804;12.116;2023-07-28T14:02:39;24.90;99.90
25280;DHT22;13225;47.804;12.116;2023-07-28T14:05:06;24.70;99.90
25280;DHT22;13225;47.804;12.116;2023-07-28T14:07:33;24.60;99.90
25280;DHT22;13225;47.804;12.116;2023-07-28T14:10:00;24.50;99.90
25280;DHT22;13225;47.804;12.116;2023-07-28T14:12:25;24.40;99.90
25280;DHT22;13225;47.804;12.116;2023-07-28T14:14:51;24.40;99.90
25280;DHT22;13225;47.804;12.116;2023-07-28T14:17:16;24.20;99.90
25280;DHT22;13225;47.804;12.116;2023-07-28T14:19:42;24.00;99.90
25280;DHT22;13225;47.804;12.116;2023-07-28T14:22:08;24.10;99.90
25280;DHT22;13225;47.804;12.116;2023-07-28T14:24:34;24.00;99.90
25280;DHT22;13225;47.804;12.116;2023-07-28T14:26:59;24.00;99.90
25280;DHT22;13225;47.804;12.116;2023-07-28T14:29:25;24.10;99.90
25280;DHT22;13225;47.804;12.116;2023-07-28T14:31:51;24.10;99.90
25280;DHT22;13225;47.804;12.116;2023-07-28T14:34:17;24.10;99.90
25280;DHT22;13225;47.804;12.116;2023-07-28T14:36:43;24.10;99.90
25280;DHT22;13225;47.804;12.116;2023-07-28T14:39:08;24.30;99.90
25280;DHT22;13225;47.804;12.116;2023-07-28T14:41:35;24.60;99.90
25280;DHT22;13225;47.804;12.116;2023-07-28T14:44:01;24.70;99.90
25280;DHT22;13225;47.804;12.116;2023-07-28T14:46:26;24.80;99.90
25280;DHT22;13225;47.804;12.116;2023-07-28T14:48:53;25.00;99.90
25280;DHT22;13225;47.804;12.116;2023-07-28T14:51:19;25.60;99.90
25280;DHT22;13225;47.804;12.116;2023-07-28T14:53:44;26.10;99.90
25280;DHT22;13225;47.804;12.116;2023-07-28T14:56:14;27.20;99.90
25280;DHT22;13225;47.804;12.116;2023-07-28T14:58:40;28.40;99.90
25280;DHT22;13225;47.804;12.116;2023-07-28T15:01:06;28.60;99.90
25280;DHT22;13225;47.804;12.116;2023-07-28T15:03:33;28.30;99.90
25280;DHT22;13225;47.804;12.116;2023-07-28T15:06:01;27.50;99.90
25280;DHT22;13225;47.804;12.116;2023-07-28T15:08:27;27.30;99.90
25280;DHT22;13225;47.804;12.116;2023-07-28T15:10:53;26.40;99.90
25280;DHT22;13225;47.804;12.116;2023-07-28T15:13:20;25.90;99.90
25280;DHT22;13225;47.804;12.116;2023-07-28T15:15:46;25.80;99.90
25280;DHT22;13225;47.804;12.116;2023-07-28T15:18:11;25.70;99.90
25280;DHT22;13225;47.804;12.116;2023-07-28T15:20:39;25.70;99.90
25280;DHT22;13225;47.804;12.116;2023-07-28T15:23:05;26.50;99.90
25280;DHT22;13225;47.804;12.116;2023-07-28T15:25:30;27.10;99.90
25280;DHT22;13225;47.804;12.116;2023-07-28T15:27:56;28.50;99.90
25280;DHT22;13225;47.804;12.116;2023-07-28T15:30:21;29.30;99.90